createdAt,value
2023-03-28T00:02:19.767Z,98113.38
2023-03-28T00:04:49.739Z,98112.28
2023-03-28T00:07:16.342Z,98121.63
2023-03-28T00:09:43.534Z,98117.34
2023-03-28T00:12:10.196Z,98088.75
2023-03-28T00:14:37.998Z,98109.78
2023-03-28T00:17:07.698Z,98079.78
2023-03-28T00:19:34.736Z,98072.94
2023-03-28T00:22:01.361Z,98094.66
2023-03-28T00:24:28.083Z,98107.41
2023-03-28T00:26:55.652Z,98086.28
2023-03-28T00:29:26.114Z,98138.72
2023-03-28T00:31:52.832Z,98089.88
2023-03-28T00:34:19.665Z,98128.28
2023-03-28T00:36:46.374Z,98131.28
2023-03-28T00:39:13.411Z,98115.47
2023-03-28T00:41:42.641Z,98130.69
2023-03-28T00:44:43.294Z,98147.88
2023-03-28T00:47:12.911Z,98141.72
2023-03-28T00:49:39.566Z,98132.50
2023-03-28T00:52:07.606Z,98141.03
2023-03-28T00:54:40.271Z,98134.91
2023-03-28T00:57:09.432Z,98076.78
2023-03-28T00:59:39.028Z,98139.34
2023-03-28T01:02:06.408Z,98108.84
2023-03-28T01:04:41.166Z,98127.91
2023-03-28T01:07:08.205Z,98120.63
2023-03-28T01:09:37.865Z,98130.69
2023-03-28T01:12:05.386Z,98127.22
2023-03-28T01:14:32.564Z,98106.06
2023-03-28T01:17:03.518Z,98125.53
2023-03-28T01:19:58.605Z,98129.97
2023-03-28T01:22:57.040Z,98121.09
2023-03-28T01:26:23.003Z,98122.31
2023-03-28T01:29:26.900Z,98119.78
2023-03-28T01:32:17.639Z,98118.09
2023-03-28T01:35:39.852Z,98112.94
2023-03-28T01:38:32.602Z,98126.16
2023-03-28T01:41:30.420Z,98125.31
2023-03-28T01:44:03.300Z,98120.38
2023-03-28T01:46:36.684Z,98126.38
2023-03-28T01:49:07.025Z,98132.50
2023-03-28T01:52:20.467Z,98119.28
2023-03-28T01:55:09.506Z,98128.22
2023-03-28T01:58:03.523Z,98121.22
2023-03-28T02:00:43.486Z,98111.25
2023-03-28T02:03:22.130Z,98124.09
2023-03-28T02:05:55.526Z,98123.88
2023-03-28T02:08:28.643Z,98102.00
2023-03-28T02:11:33.694Z,98117.88
2023-03-28T02:14:18.827Z,98100.19
2023-03-28T02:17:17.962Z,98111.03
2023-03-28T02:20:15.670Z,98109.34
2023-03-28T02:23:07.748Z,98107.88
2023-03-28T02:25:52.859Z,98103.31
2023-03-28T02:28:39.565Z,98090.97
2023-03-28T02:31:15.501Z,98105.38
2023-03-28T02:33:45.412Z,98105.88
2023-03-28T02:37:00.229Z,98092.97
2023-03-28T02:39:29.463Z,98102.50
2023-03-28T02:42:28.306Z,98104.28
2023-03-28T02:45:10.385Z,98107.03
2023-03-28T02:48:02.074Z,98102.59
2023-03-28T02:51:04.219Z,98103.56
2023-03-28T02:53:44.788Z,98094.06
2023-03-28T02:56:31.922Z,98096.56
2023-03-28T02:59:08.697Z,98110.75
2023-03-28T03:01:36.728Z,98102.81
2023-03-28T03:04:04.038Z,98055.06
2023-03-28T03:06:31.080Z,98093.47
2023-03-28T03:08:57.878Z,98090.59
2023-03-28T03:11:28.146Z,98096.47
2023-03-28T03:13:55.542Z,98104.75
2023-03-28T03:16:23.772Z,98100.44
2023-03-28T03:18:50.912Z,98086.25
2023-03-28T03:21:17.869Z,98090.34
2023-03-28T03:23:44.550Z,98103.22
2023-03-28T03:26:11.162Z,98090.97
2023-03-28T03:28:41.226Z,98049.31
2023-03-28T03:31:08.770Z,98071.03
2023-03-28T03:33:50.547Z,98094.56
2023-03-28T03:36:21.963Z,98071.97
2023-03-28T03:38:48.667Z,98105.00
2023-03-28T03:41:20.656Z,98092.16
2023-03-28T03:43:48.847Z,98082.78
2023-03-28T03:46:15.717Z,98076.56
2023-03-28T03:48:49.544Z,98086.16
2023-03-28T03:51:16.591Z,98086.75
2023-03-28T03:53:43.289Z,98096.47
2023-03-28T03:56:13.366Z,98096.47
2023-03-28T03:58:55.016Z,98089.50
2023-03-28T04:01:25.814Z,98003.25
2023-03-28T04:03:54.198Z,98078.72
2023-03-28T04:06:26.252Z,98051.34
2023-03-28T04:08:53.811Z,98059.38
2023-03-28T04:11:36.615Z,98056.41
2023-03-28T04:14:04.609Z,98007.81
2023-03-28T04:16:40.616Z,98093.50
2023-03-28T04:19:10.983Z,98096.59
2023-03-28T04:21:41.585Z,98062.63
2023-03-28T04:24:08.934Z,98062.16
2023-03-28T04:26:39.634Z,98087.94
2023-03-28T04:29:10.544Z,98075.81
2023-03-28T04:31:40.023Z,98040.06
2023-03-28T04:34:29.940Z,98088.06
2023-03-28T04:37:18.018Z,98071.97
2023-03-28T04:39:53.976Z,98078.72
2023-03-28T04:42:29.855Z,98089.16
2023-03-28T04:45:23.458Z,98091.53
2023-03-28T04:47:50.926Z,98090.72
2023-03-28T04:50:22.232Z,98050.63
2023-03-28T04:52:49.289Z,98090.25
2023-03-28T04:55:17.002Z,98098.88
2023-03-28T04:57:45.663Z,98103.19
2023-03-28T05:00:13.311Z,98107.53
2023-03-28T05:03:00.356Z,98097.09
2023-03-28T05:05:30.136Z,98097.09
2023-03-28T05:07:58.624Z,98087.13
2023-03-28T05:10:25.660Z,98098.88
2023-03-28T05:12:58.455Z,98100.56
2023-03-28T05:15:26.398Z,98093.59
2023-03-28T05:18:12.038Z,98089.28
2023-03-28T05:20:39.621Z,98077.53
2023-03-28T05:23:07.243Z,98088.31
2023-03-28T05:25:37.222Z,98075.34
2023-03-28T05:28:04.750Z,98045.25
2023-03-28T05:30:32.755Z,98069.22
2023-03-28T05:33:00.634Z,98061.44
2023-03-28T05:35:29.245Z,98094.56
2023-03-28T05:37:57.171Z,98054.81
2023-03-28T05:40:23.827Z,98073.31
2023-03-28T05:42:50.860Z,98106.31
2023-03-28T05:45:20.336Z,98084.38
2023-03-28T05:47:47.021Z,98111.84
2023-03-28T05:50:14.396Z,98104.06
2023-03-28T05:52:41.119Z,98117.47
2023-03-28T05:55:08.398Z,98122.75
2023-03-28T05:57:39.319Z,98108.00
2023-03-28T06:00:13.967Z,98127.81
2023-03-28T06:02:54.794Z,98119.06
2023-03-28T06:05:31.475Z,98118.94
2023-03-28T06:07:58.327Z,98092.16
2023-03-28T06:10:28.211Z,98119.53
2023-03-28T06:13:13.578Z,98108.84
2023-03-28T06:15:42.066Z,98111.97
2023-03-28T06:18:09.168Z,98131.78
2023-03-28T06:20:42.826Z,98111.97
2023-03-28T06:23:10.117Z,98108.72
2023-03-28T06:25:36.914Z,98135.63
2023-03-28T06:28:03.894Z,98120.13
2023-03-28T06:30:32.055Z,98114.00
2023-03-28T06:32:59.918Z,98145.97
2023-03-28T06:35:26.707Z,98146.47
2023-03-28T06:37:53.350Z,98148.50
2023-03-28T06:40:26.410Z,98147.53
2023-03-28T06:42:53.532Z,98138.41
2023-03-28T06:45:29.258Z,98157.16
2023-03-28T06:48:03.268Z,98123.28
2023-03-28T06:50:56.304Z,98121.44
2023-03-28T06:53:24.762Z,98121.09
2023-03-28T06:55:52.542Z,98156.19
2023-03-28T06:58:20.944Z,98137.44
2023-03-28T07:01:09.746Z,98107.31
2023-03-28T07:03:52.424Z,98153.66
2023-03-28T07:06:22.324Z,98151.59
2023-03-28T07:08:48.984Z,98159.53
2023-03-28T07:11:18.724Z,98149.59
2023-03-28T07:13:49.060Z,98163.88
2023-03-28T07:16:16.871Z,98144.44
2023-03-28T07:18:43.714Z,98173.47
2023-03-28T07:21:18.214Z,98177.94
2023-03-28T07:23:45.314Z,98148.03
2023-03-28T07:26:15.086Z,98178.03
2023-03-28T07:28:42.099Z,98189.59
2023-03-28T07:31:08.962Z,98174.09
2023-03-28T07:33:38.225Z,98158.22
2023-03-28T07:36:13.137Z,98189.69
2023-03-28T07:38:43.316Z,98198.50
2023-03-28T07:41:11.339Z,98199.31
2023-03-28T07:43:40.015Z,98178.50
2023-03-28T07:46:09.571Z,98192.25
2023-03-28T07:48:37.806Z,98202.81
2023-03-28T07:51:06.552Z,98199.19
2023-03-28T07:53:34.646Z,98197.75
2023-03-28T07:56:01.667Z,98207.84
2023-03-28T07:58:53.795Z,98204.59
2023-03-28T08:01:23.905Z,98200.41
2023-03-28T08:03:55.125Z,98201.00
2023-03-28T08:06:32.017Z,98215.44
2023-03-28T08:09:01.084Z,98207.50
2023-03-28T08:11:40.642Z,98213.13
2023-03-28T08:14:10.252Z,98223.81
2023-03-28T08:16:37.467Z,98223.81
2023-03-28T08:19:11.499Z,98205.81
2023-03-28T08:22:02.457Z,98229.72
2023-03-28T08:24:36.053Z,98218.66
2023-03-28T08:27:19.898Z,98213.88
2023-03-28T08:29:50.354Z,98238.72
2023-03-28T08:32:17.200Z,98230.19
2023-03-28T08:34:43.792Z,98241.59
2023-03-28T08:37:24.958Z,98244.84
2023-03-28T08:39:51.759Z,98267.69
2023-03-28T08:42:41.432Z,98258.94
2023-03-28T08:45:11.070Z,98272.84
2023-03-28T08:47:47.824Z,98259.63
2023-03-28T08:50:23.606Z,98255.78
2023-03-28T08:52:52.319Z,98247.38
2023-03-28T08:55:29.909Z,98275.16
2023-03-28T08:57:57.950Z,98275.00
2023-03-28T09:00:32.015Z,98276.56
2023-03-28T09:02:59.200Z,98290.53
2023-03-28T09:05:43.881Z,98279.81
2023-03-28T09:08:43.377Z,98303.63
2023-03-28T09:11:43.027Z,98321.31
2023-03-28T09:14:41.191Z,98320.34
2023-03-28T09:17:39.963Z,98336.22
2023-03-28T09:20:29.576Z,98344.84
2023-03-28T09:23:33.730Z,98358.22
2023-03-28T09:26:23.642Z,98350.28
2023-03-28T09:29:10.322Z,98336.22
2023-03-28T09:31:46.793Z,98330.31
2023-03-28T09:34:23.052Z,98353.03
2023-03-28T09:39:43.490Z,98355.91
2023-03-28T09:42:13.362Z,98362.66
2023-03-28T09:45:12.203Z,98380.22
2023-03-28T09:47:57.633Z,98363.84
2023-03-28T09:50:27.871Z,98371.31
2023-03-28T09:52:58.700Z,98379.16
2023-03-28T09:55:28.459Z,98367.22
2023-03-28T09:58:01.684Z,98329.94
2023-03-28T10:00:29.714Z,98349.44
2023-03-28T10:03:34.794Z,98363.97
2023-03-28T10:06:22.966Z,98381.06
2023-03-28T10:08:50.284Z,98363.75
2023-03-28T10:11:24.783Z,98387.44
2023-03-28T10:13:53.248Z,98380.31
2023-03-28T10:16:28.918Z,98386.59
2023-03-28T10:18:58.658Z,98386.09
2023-03-28T10:21:42.120Z,98393.53
2023-03-28T10:24:16.531Z,98402.47
2023-03-28T10:26:49.751Z,98396.91
2023-03-28T10:29:17.654Z,98391.63
2023-03-28T10:31:49.909Z,98396.19
2023-03-28T10:34:33.635Z,98391.75
2023-03-28T10:37:32.612Z,98412.56
2023-03-28T10:40:30.104Z,98402.94
2023-03-28T10:43:35.361Z,98397.66
2023-03-28T10:46:37.411Z,98412.44
2023-03-28T10:49:21.670Z,98413.41
2023-03-28T10:51:57.280Z,98381.78
2023-03-28T10:54:48.211Z,98414.34
2023-03-28T10:58:12.424Z,98405.69
2023-03-28T11:01:01.747Z,98421.34
2023-03-28T11:04:00.328Z,98442.50
2023-03-28T11:06:44.448Z,98421.47
2023-03-28T11:09:46.631Z,98437.09
2023-03-28T11:13:26.510Z,98440.59
2023-03-28T11:16:09.199Z,98442.38
2023-03-28T11:18:54.899Z,98445.03
2023-03-28T11:21:48.433Z,98443.31
2023-03-28T11:24:15.275Z,98435.38
2023-03-28T11:27:17.247Z,98428.44
2023-03-28T11:30:05.438Z,98439.97
2023-03-28T11:33:02.704Z,98434.78
2023-03-28T11:35:36.551Z,98442.00
2023-03-28T11:38:22.387Z,98441.28
2023-03-28T11:41:24.259Z,98439.59
2023-03-28T11:44:12.244Z,98438.00
2023-03-28T11:46:51.078Z,98445.00
2023-03-28T11:49:28.427Z,98439.84
2023-03-28T11:52:00.897Z,98443.44
2023-03-28T11:54:51.287Z,98455.81
2023-03-28T11:57:29.199Z,98445.25
2023-03-28T12:00:06.995Z,98455.81
2023-03-28T12:02:51.650Z,98441.25
2023-03-28T12:05:47.861Z,98448.72
2023-03-28T12:08:26.966Z,98451.25
2023-03-28T12:11:08.869Z,98446.81
2023-03-28T12:14:08.747Z,98426.69
2023-03-28T12:16:46.899Z,98458.47
2023-03-28T12:19:22.382Z,98452.16
2023-03-28T12:21:59.526Z,98414.56
2023-03-28T12:24:53.830Z,98486.19
2023-03-28T12:27:42.092Z,98463.94
2023-03-28T12:30:25.767Z,98464.31
2023-03-28T12:33:13.188Z,98476.69
2023-03-28T12:35:51.163Z,98475.75
2023-03-28T12:38:37.251Z,98472.16
2023-03-28T12:41:24.297Z,98476.47
2023-03-28T12:43:58.535Z,98459.59
2023-03-28T12:46:53.560Z,98476.25
2023-03-28T12:49:32.831Z,98485.97
2023-03-28T12:52:11.638Z,98504.47
2023-03-28T12:55:01.049Z,98527.56
2023-03-28T12:57:45.737Z,98530.31
2023-03-28T13:01:09.626Z,98538.34
2023-03-28T13:03:51.252Z,98535.81
2023-03-28T13:06:36.610Z,98526.53
2023-03-28T13:09:30.292Z,98535.00
2023-03-28T13:12:18.408Z,98534.13
2023-03-28T13:14:58.542Z,98505.00
2023-03-28T13:17:27.466Z,98522.94
2023-03-28T13:20:12.722Z,98518.28
2023-03-28T13:22:48.810Z,98507.56
2023-03-28T13:25:54.048Z,98507.69
2023-03-28T13:28:39.174Z,98500.22
2023-03-28T13:31:09.040Z,98506.75
2023-03-28T13:33:40.772Z,98506.75
2023-03-28T13:36:08.389Z,98520.78
2023-03-28T13:39:13.920Z,98540.16
2023-03-28T13:41:46.363Z,98549.03
2023-03-28T13:44:29.332Z,98558.69
2023-03-28T13:46:57.133Z,98591.47
2023-03-28T13:49:29.986Z,98603.84
2023-03-28T13:52:19.267Z,98576.75
2023-03-28T13:54:46.486Z,98618.13
2023-03-28T13:57:17.599Z,98638.56
2023-03-28T13:59:52.178Z,98607.78
2023-03-28T14:02:30.091Z,98590.06
2023-03-28T14:05:05.464Z,98586.63
2023-03-28T14:07:32.104Z,98589.28
2023-03-28T14:09:58.938Z,98597.28
2023-03-28T14:12:29.414Z,98586.22
2023-03-28T14:15:01.861Z,98591.63
2023-03-28T14:17:33.798Z,98580.44
2023-03-28T14:20:05.364Z,98599.22
2023-03-28T14:22:43.217Z,98593.44
2023-03-28T14:25:21.564Z,98600.19
2023-03-28T14:27:54.605Z,98599.34
2023-03-28T14:30:29.403Z,98584.31
2023-03-28T14:33:01.105Z,98590.34
2023-03-28T14:35:30.716Z,98580.22
2023-03-28T14:38:01.991Z,98597.22
2023-03-28T14:40:41.780Z,98597.09
2023-03-28T14:43:13.133Z,98604.06
2023-03-28T14:45:43.385Z,98599.63
2023-03-28T14:48:15.960Z,98603.13
2023-03-28T14:50:44.641Z,98593.38
2023-03-28T14:53:24.381Z,98585.56
2023-03-28T14:55:54.443Z,98602.25
2023-03-28T14:58:25.064Z,98604.91
2023-03-28T15:00:55.028Z,98609.38
2023-03-28T15:03:35.623Z,98608.28
2023-03-28T15:06:03.206Z,98598.28
2023-03-28T15:08:39.358Z,98613.69
2023-03-28T15:11:16.267Z,98579.59
2023-03-28T15:13:49.051Z,98596.09
2023-03-28T15:16:26.392Z,98607.66
2023-03-28T15:19:06.991Z,98600.19
2023-03-28T15:21:37.037Z,98614.41
2023-03-28T15:24:05.417Z,98620.56
2023-03-28T15:26:36.986Z,98623.22
2023-03-28T15:29:06.948Z,98635.47
2023-03-28T15:31:33.915Z,98632.91
2023-03-28T15:34:00.604Z,98619.94
2023-03-28T15:36:33.106Z,98637.59
2023-03-28T15:39:21.076Z,98640.41
2023-03-28T15:41:49.431Z,98657.97
2023-03-28T15:44:27.706Z,98652.69
2023-03-28T15:47:07.305Z,98655.31
2023-03-28T15:49:38.555Z,98656.00
2023-03-28T15:52:15.433Z,98666.13
2023-03-28T15:54:44.716Z,98656.28
2023-03-28T15:57:14.471Z,98654.44
2023-03-28T15:59:51.123Z,98665.19
2023-03-28T16:02:23.798Z,98666.97
2023-03-28T16:05:15.295Z,98668.03
2023-03-28T16:07:48.515Z,98674.28
2023-03-28T16:10:23.607Z,98679.81
2023-03-28T16:13:14.426Z,98686.88
2023-03-28T16:16:07.848Z,98694.09
2023-03-28T16:19:02.035Z,98686.69
2023-03-28T16:21:28.752Z,98701.16
2023-03-28T16:23:55.389Z,98715.31
2023-03-28T16:26:22.114Z,98709.41
2023-03-28T16:28:48.672Z,98718.84
2023-03-28T16:31:15.759Z,98712.69
2023-03-28T16:33:42.321Z,98717.97
2023-03-28T16:36:12.499Z,98710.97
2023-03-28T16:38:39.310Z,98703.72
2023-03-28T16:41:06.203Z,98712.41
2023-03-28T16:43:37.885Z,98717.69
2023-03-28T16:46:05.049Z,98736.59
2023-03-28T16:48:32.506Z,98735.84
2023-03-28T16:51:04.680Z,98747.41
2023-03-28T16:53:36.093Z,98746.66
2023-03-28T16:56:03.921Z,98759.88
2023-03-28T16:58:33.260Z,98746.53
2023-03-28T17:01:09.370Z,98772.34
2023-03-28T17:03:37.580Z,98773.91
2023-03-28T17:06:06.450Z,98774.75
2023-03-28T17:08:34.227Z,98789.56
2023-03-28T17:11:11.027Z,98794.84
2023-03-28T17:13:42.865Z,98795.81
2023-03-28T17:16:10.757Z,98802.91
2023-03-28T17:18:37.565Z,98807.31
2023-03-28T17:21:12.819Z,98809.97
2023-03-28T17:23:44.121Z,98810.91
2023-03-28T17:26:12.887Z,98811.34
2023-03-28T17:28:42.005Z,98825.75
2023-03-28T17:31:11.594Z,98829.41
2023-03-28T17:33:38.760Z,98842.25
2023-03-28T17:36:19.016Z,98772.38
2023-03-28T17:38:51.110Z,98858.94
2023-03-28T17:41:18.911Z,98855.34
2023-03-28T17:43:45.945Z,98850.19
2023-03-28T17:46:13.011Z,98844.34
2023-03-28T17:48:40.716Z,98861.81
2023-03-28T17:51:10.143Z,98872.03
2023-03-28T17:53:44.055Z,98877.56
2023-03-28T17:56:11.697Z,98865.97
2023-03-28T17:58:38.436Z,98893.13
2023-03-28T18:01:09.686Z,98874.53
2023-03-28T18:03:37.316Z,98891.41
2023-03-28T18:06:30.945Z,98901.03
2023-03-28T18:08:57.769Z,98889.25
2023-03-28T18:11:24.676Z,98912.47
2023-03-28T18:13:53.596Z,98913.22
2023-03-28T18:16:20.294Z,98935.94
2023-03-28T18:18:47.210Z,98927.06
2023-03-28T18:21:13.940Z,98910.13
2023-03-28T18:23:41.213Z,98917.31
2023-03-28T18:26:08.079Z,98939.03
2023-03-28T18:28:36.339Z,98945.03
2023-03-28T18:31:17.520Z,98920.34
2023-03-28T18:33:44.560Z,98929.44
2023-03-28T18:36:12.648Z,98947.41
2023-03-28T18:38:42.041Z,98957.03
2023-03-28T18:41:09.828Z,98957.81
2023-03-28T18:43:37.667Z,98965.63
2023-03-28T18:46:08.131Z,98955.25
2023-03-28T18:48:35.984Z,98962.16
2023-03-28T18:51:06.558Z,98963.72
2023-03-28T18:53:37.905Z,98955.81
2023-03-28T18:56:06.290Z,98970.72
2023-03-28T18:58:34.544Z,98961.50
2023-03-28T19:01:05.740Z,98962.25
2023-03-28T19:03:39.801Z,98978.53
2023-03-28T19:06:11.440Z,98978.53
2023-03-28T19:08:38.463Z,98984.66
2023-03-28T19:11:08.750Z,98986.34
2023-03-28T19:13:35.859Z,98986.47
2023-03-28T19:16:08.846Z,98989.88
2023-03-28T19:18:54.072Z,98996.00
2023-03-28T19:21:23.876Z,98991.53
2023-03-28T19:23:54.047Z,98992.41
2023-03-28T19:26:22.259Z,98997.69
2023-03-28T19:28:50.653Z,98998.53
2023-03-28T19:31:24.140Z,98991.66
2023-03-28T19:33:53.979Z,98998.53
2023-03-28T19:36:20.861Z,99000.44
2023-03-28T19:38:50.810Z,99002.03
2023-03-28T19:41:26.542Z,99009.09
2023-03-28T19:43:55.983Z,99004.69
2023-03-28T19:46:35.409Z,99012.59
2023-03-28T19:49:08.391Z,99010.78
2023-03-28T19:51:35.382Z,99001.16
2023-03-28T19:54:02.024Z,99007.22
2023-03-28T19:56:31.982Z,98999.56
2023-03-28T19:59:03.936Z,99003.72
2023-03-28T20:01:30.948Z,98989.94
2023-03-28T20:03:57.724Z,99006.16
2023-03-28T20:06:24.438Z,98984.88
2023-03-28T20:08:51.516Z,98992.50
2023-03-28T20:13:50.446Z,98997.47
2023-03-28T20:16:17.187Z,98992.19
2023-03-28T20:18:44.537Z,98994.00
2023-03-28T20:21:13.237Z,98997.47
2023-03-28T20:23:42.885Z,98986.25
2023-03-28T20:26:17.486Z,98989.53
2023-03-28T20:28:46.705Z,98995.69
2023-03-28T20:31:14.815Z,98993.16
2023-03-28T20:33:41.882Z,98976.28
2023-03-28T20:36:08.795Z,99003.63
2023-03-28T20:38:35.650Z,98999.28
2023-03-28T20:41:02.572Z,98996.63
2023-03-28T20:43:29.541Z,99005.50
2023-03-28T20:46:04.217Z,99007.97
2023-03-28T20:48:36.992Z,98991.00
2023-03-28T20:51:17.462Z,99006.16
2023-03-28T20:53:59.069Z,99013.16
2023-03-28T20:56:30.238Z,99009.03
2023-03-28T20:58:58.796Z,99007.97
2023-03-28T21:01:30.422Z,99008.81
2023-03-28T21:04:00.254Z,99014.97
2023-03-28T21:06:35.943Z,99013.16
2023-03-28T21:09:05.651Z,99009.56
2023-03-28T21:11:35.407Z,99009.66
2023-03-28T21:14:03.042Z,99021.72
2023-03-28T21:16:31.721Z,99019.91
2023-03-28T21:19:00.071Z,99026.16
2023-03-28T21:21:29.728Z,99017.38
2023-03-28T21:23:57.124Z,99026.25
2023-03-28T21:26:24.586Z,99034.19
2023-03-28T21:28:54.980Z,99020.59
2023-03-28T21:31:25.679Z,99025.53
2023-03-28T21:33:55.272Z,99037.03
2023-03-28T21:36:21.952Z,99026.47
2023-03-28T21:38:48.713Z,99031.94
2023-03-28T21:41:16.696Z,99033.63
2023-03-28T21:43:43.429Z,99021.00
2023-03-28T21:46:11.300Z,99039.03
2023-03-28T21:48:38.684Z,99038.16
2023-03-28T21:51:06.222Z,99041.75
2023-03-28T21:53:36.263Z,99033.94
2023-03-28T21:56:04.280Z,99026.41
2023-03-28T21:58:33.659Z,99032.72
2023-03-28T22:01:04.709Z,99036.69
2023-03-28T22:03:31.957Z,99038.50
2023-03-28T22:05:58.673Z,99020.84
2023-03-28T22:08:25.584Z,99042.06
2023-03-28T22:10:58.416Z,99024.44
2023-03-28T22:13:28.979Z,99033.28
2023-03-28T22:15:59.653Z,99043.00
2023-03-28T22:18:27.233Z,99038.66
2023-03-28T22:20:54.420Z,99045.75
2023-03-28T22:23:24.454Z,99055.47
2023-03-28T22:25:52.912Z,99049.34
2023-03-28T22:28:24.007Z,99044.06
2023-03-28T22:30:53.765Z,99050.94
2023-03-28T22:33:20.439Z,99051.78
2023-03-28T22:35:47.889Z,99049.13
2023-03-28T22:38:14.591Z,99058.00
2023-03-28T22:40:41.173Z,99060.63
2023-03-28T22:43:08.115Z,99059.81
2023-03-28T22:45:34.759Z,99058.97
2023-03-28T22:48:03.266Z,99057.28
2023-03-28T22:50:30.098Z,99059.16
2023-03-28T22:52:57.080Z,99058.38
2023-03-28T22:55:24.349Z,99068.03
2023-03-28T22:57:52.914Z,99062.84
2023-03-28T23:00:23.340Z,99064.66
2023-03-28T23:02:51.693Z,99064.72
2023-03-28T23:05:19.441Z,99061.25
2023-03-28T23:07:46.135Z,99063.03
2023-03-28T23:10:15.353Z,99064.81
2023-03-28T23:12:43.190Z,99064.94
2023-03-28T23:15:10.345Z,99051.25
2023-03-28T23:17:37.535Z,99069.34
2023-03-28T23:20:15.926Z,99069.34
2023-03-28T23:22:44.760Z,99069.44
2023-03-28T23:25:13.290Z,99069.56
2023-03-28T23:27:43.618Z,99069.56
2023-03-28T23:30:13.617Z,99067.09
2023-03-28T23:32:40.378Z,99071.44
2023-03-28T23:35:07.760Z,99077.66
2023-03-28T23:37:37.996Z,99078.53
2023-03-28T23:40:06.272Z,99079.56
2023-03-28T23:42:32.808Z,99082.09
2023-03-28T23:44:59.329Z,99076.00
2023-03-28T23:47:28.514Z,99074.28
2023-03-28T23:49:55.436Z,99085.78
2023-03-28T23:52:21.931Z,99078.69
2023-03-28T23:54:48.631Z,99076.28
2023-03-28T23:57:15.253Z,99077.97
2023-03-28T23:59:41.873Z,99082.38
